sensor_id;sensor_type;location;lat;lon;timestamp;temperature;humidity
32769;DHT22;23049;54.304;8.826;2022-08-04T00:02:09;17.80;99.90
32769;DHT22;23049;54.304;8.826;2022-08-04T00:05:05;17.80;99.90
32769;DHT22;23049;54.304;8.826;2022-08-04T00:10:21;17.80;99.90
32769;DHT22;23049;54.304;8.826;2022-08-04T00:12:50;17.60;99.90
32769;DHT22;23049;54.304;8.826;2022-08-04T00:15:19;17.70;99.90
32769;DHT22;23049;54.304;8.826;2022-08-04T00:17:52;17.70;99.90
32769;DHT22;23049;54.304;8.826;2022-08-04T00:20:20;17.80;99.90
32769;DHT22;23049;54.304;8.826;2022-08-04T00:22:47;17.70;99.90
32769;DHT22;23049;54.304;8.826;2022-08-04T00:25:14;17.70;99.90
32769;DHT22;23049;54.304;8.826;2022-08-04T00:27:40;17.70;99.90
32769;DHT22;23049;54.304;8.826;2022-08-04T00:30:06;17.70;99.90
32769;DHT22;23049;54.304;8.826;2022-08-04T00:32:32;17.70;99.90
32769;DHT22;23049;54.304;8.826;2022-08-04T00:34:59;17.60;99.90
32769;DHT22;23049;54.304;8.826;2022-08-04T00:37:26;17.60;99.90
32769;DHT22;23049;54.304;8.826;2022-08-04T00:39:56;17.60;99.90
32769;DHT22;23049;54.304;8.826;2022-08-04T00:43:02;17.60;99.90
32769;DHT22;23049;54.304;8.826;2022-08-04T00:45:40;17.60;99.90
32769;DHT22;23049;54.304;8.826;2022-08-04T00:48:44;17.60;99.90
32769;DHT22;23049;54.304;8.826;2022-08-04T00:51:41;17.70;99.90
32769;DHT22;23049;54.304;8.826;2022-08-04T01:02:20;17.60;99.90
32769;DHT22;23049;54.304;8.826;2022-08-04T01:07:28;17.30;99.90
32769;DHT22;23049;54.304;8.826;2022-08-04T01:16:04;17.50;99.90
32769;DHT22;23049;54.304;8.826;2022-08-04T01:29:10;17.50;99.90
32769;DHT22;23049;54.304;8.826;2022-08-04T01:31:59;17.50;99.90
32769;DHT22;23049;54.304;8.826;2022-08-04T01:34:28;17.60;99.90
32769;DHT22;23049;54.304;8.826;2022-08-04T01:37:06;17.60;99.90
32769;DHT22;23049;54.304;8.826;2022-08-04T01:39:42;17.60;99.90
32769;DHT22;23049;54.304;8.826;2022-08-04T01:42:10;17.60;99.90
32769;DHT22;23049;54.304;8.826;2022-08-04T01:44:38;17.50;99.90
32769;DHT22;23049;54.304;8.826;2022-08-04T01:47:05;17.50;99.90
32769;DHT22;23049;54.304;8.826;2022-08-04T01:49:32;17.50;99.90
32769;DHT22;23049;54.304;8.826;2022-08-04T01:51:58;17.50;99.90
32769;DHT22;23049;54.304;8.826;2022-08-04T01:54:25;17.60;99.90
32769;DHT22;23049;54.304;8.826;2022-08-04T01:59:23;17.60;99.90
32769;DHT22;23049;54.304;8.826;2022-08-04T02:01:50;17.60;99.90
32769;DHT22;23049;54.304;8.826;2022-08-04T02:04:18;17.50;99.90
32769;DHT22;23049;54.304;8.826;2022-08-04T02:12:34;17.20;99.90
32769;DHT22;23049;54.304;8.826;2022-08-04T02:20:24;17.20;99.90
32769;DHT22;23049;54.304;8.826;2022-08-04T02:23:27;17.30;99.90
32769;DHT22;23049;54.304;8.826;2022-08-04T02:26:02;17.20;99.90
32769;DHT22;23049;54.304;8.826;2022-08-04T02:28:35;17.10;99.90
32769;DHT22;23049;54.304;8.826;2022-08-04T02:33:42;17.10;99.90
32769;DHT22;23049;54.304;8.826;2022-08-04T02:36:10;17.30;99.90
32769;DHT22;23049;54.304;8.826;2022-08-04T02:41:24;17.40;99.90
32769;DHT22;23049;54.304;8.826;2022-08-04T02:43:51;17.50;99.90
32769;DHT22;23049;54.304;8.826;2022-08-04T02:46:20;17.40;99.90
32769;DHT22;23049;54.304;8.826;2022-08-04T02:48:48;17.50;99.90
32769;DHT22;23049;54.304;8.826;2022-08-04T02:51:16;17.30;99.90
32769;DHT22;23049;54.304;8.826;2022-08-04T02:53:45;17.30;99.90
32769;DHT22;23049;54.304;8.826;2022-08-04T02:56:14;17.20;99.90
32769;DHT22;23049;54.304;8.826;2022-08-04T02:58:47;17.10;99.90
32769;DHT22;23049;54.304;8.826;2022-08-04T03:01:13;17.10;99.90
32769;DHT22;23049;54.304;8.826;2022-08-04T03:09:41;17.20;99.90
32769;DHT22;23049;54.304;8.826;2022-08-04T03:17:45;17.20;99.90
32769;DHT22;23049;54.304;8.826;2022-08-04T03:25:34;17.50;99.90
32769;DHT22;23049;54.304;8.826;2022-08-04T03:34:32;17.50;99.90
32769;DHT22;23049;54.304;8.826;2022-08-04T03:51:06;18.70;99.90
32769;DHT22;23049;54.304;8.826;2022-08-04T03:54:22;18.80;99.90
32769;DHT22;23049;54.304;8.826;2022-08-04T04:08:11;19.50;99.90
32769;DHT22;23049;54.304;8.826;2022-08-04T04:10:51;19.60;99.90
32769;DHT22;23049;54.304;8.826;2022-08-04T04:13:33;19.60;99.90
32769;DHT22;23049;54.304;8.826;2022-08-04T04:25:02;20.10;99.90
32769;DHT22;23049;54.304;8.826;2022-08-04T04:33:27;20.80;99.90
32769;DHT22;23049;54.304;8.826;2022-08-04T04:48:06;22.70;99.90
32769;DHT22;23049;54.304;8.826;2022-08-04T04:55:44;23.30;99.90
32769;DHT22;23049;54.304;8.826;2022-08-04T04:58:12;23.60;99.90
32769;DHT22;23049;54.304;8.826;2022-08-04T05:16:59;25.40;99.90
32769;DHT22;23049;54.304;8.826;2022-08-04T05:19:50;25.60;99.90
32769;DHT22;23049;54.304;8.826;2022-08-04T05:22:35;25.70;99.90
32769;DHT22;23049;54.304;8.826;2022-08-04T05:25:11;25.80;99.90
32769;DHT22;23049;54.304;8.826;2022-08-04T05:30:37;26.00;99.90
32769;DHT22;23049;54.304;8.826;2022-08-04T05:33:11;26.00;99.90
32769;DHT22;23049;54.304;8.826;2022-08-04T05:35:48;25.80;99.90
32769;DHT22;23049;54.304;8.826;2022-08-04T05:38:19;25.60;99.90
32769;DHT22;23049;54.304;8.826;2022-08-04T05:43:24;25.80;99.90
32769;DHT22;23049;54.304;8.826;2022-08-04T05:45:51;26.30;99.90
32769;DHT22;23049;54.304;8.826;2022-08-04T05:48:17;26.50;99.90
32769;DHT22;23049;54.304;8.826;2022-08-04T05:50:45;26.60;99.90
32769;DHT22;23049;54.304;8.826;2022-08-04T05:53:14;27.00;99.90
32769;DHT22;23049;54.304;8.826;2022-08-04T05:55:39;27.30;99.90
32769;DHT22;23049;54.304;8.826;2022-08-04T05:58:05;27.80;99.90
32769;DHT22;23049;54.304;8.826;2022-08-04T06:00:34;28.00;99.90
32769;DHT22;23049;54.304;8.826;2022-08-04T06:03:01;28.30;99.90
32769;DHT22;23049;54.304;8.826;2022-08-04T06:05:27;28.80;99.90
32769;DHT22;23049;54.304;8.826;2022-08-04T06:07:53;29.30;99.90
32769;DHT22;23049;54.304;8.826;2022-08-04T06:10:19;29.70;99.90
32769;DHT22;23049;54.304;8.826;2022-08-04T06:12:51;29.80;99.90
32769;DHT22;23049;54.304;8.826;2022-08-04T06:15:19;29.70;99.90
32769;DHT22;23049;54.304;8.826;2022-08-04T06:17:49;29.40;99.90
32769;DHT22;23049;54.304;8.826;2022-08-04T06:20:17;29.10;99.90
32769;DHT22;23049;54.304;8.826;2022-08-04T06:22:46;29.00;99.90
32769;DHT22;23049;54.304;8.826;2022-08-04T06:25:19;28.60;99.90
32769;DHT22;23049;54.304;8.826;2022-08-04T06:27:47;28.20;99.90
32769;DHT22;23049;54.304;8.826;2022-08-04T06:30:14;27.70;99.90
32769;DHT22;23049;54.304;8.826;2022-08-04T06:32:42;27.30;99.90
32769;DHT22;23049;54.304;8.826;2022-08-04T06:35:34;26.90;99.90
32769;DHT22;23049;54.304;8.826;2022-08-04T06:38:00;26.60;99.90
32769;DHT22;23049;54.304;8.826;2022-08-04T06:40:27;26.40;99.90
32769;DHT22;23049;54.304;8.826;2022-08-04T06:42:54;26.20;99.90
32769;DHT22;23049;54.304;8.826;2022-08-04T06:45:21;26.10;99.90
32769;DHT22;23049;54.304;8.826;2022-08-04T06:47:47;26.00;99.90
32769;DHT22;23049;54.304;8.826;2022-08-04T06:50:14;25.80;99.90
32769;DHT22;23049;54.304;8.826;2022-08-04T06:52:40;25.60;99.90
32769;DHT22;23049;54.304;8.826;2022-08-04T06:55:08;25.60;99.90
32769;DHT22;23049;54.304;8.826;2022-08-04T06:57:35;25.50;99.90
32769;DHT22;23049;54.304;8.826;2022-08-04T07:02:33;25.60;99.90
32769;DHT22;23049;54.304;8.826;2022-08-04T07:05:01;25.60;99.90
32769;DHT22;23049;54.304;8.826;2022-08-04T07:07:27;25.50;99.90
32769;DHT22;23049;54.304;8.826;2022-08-04T07:09:53;25.60;99.90
32769;DHT22;23049;54.304;8.826;2022-08-04T07:12:19;25.60;99.90
32769;DHT22;23049;54.304;8.826;2022-08-04T07:14:47;25.60;99.90
32769;DHT22;23049;54.304;8.826;2022-08-04T07:17:14;25.60;99.90
32769;DHT22;23049;54.304;8.826;2022-08-04T07:19:41;25.70;99.90
32769;DHT22;23049;54.304;8.826;2022-08-04T07:22:09;25.70;99.90
32769;DHT22;23049;54.304;8.826;2022-08-04T07:24:37;25.80;99.90
32769;DHT22;23049;54.304;8.826;2022-08-04T07:27:04;25.70;99.90
32769;DHT22;23049;54.304;8.826;2022-08-04T07:29:31;25.80;99.90
32769;DHT22;23049;54.304;8.826;2022-08-04T07:31:58;25.90;99.90
32769;DHT22;23049;54.304;8.826;2022-08-04T07:34:25;25.90;99.90
32769;DHT22;23049;54.304;8.826;2022-08-04T07:36:53;26.00;99.90
32769;DHT22;23049;54.304;8.826;2022-08-04T07:39:20;26.10;99.90
32769;DHT22;23049;54.304;8.826;2022-08-04T07:41:47;26.20;99.90
32769;DHT22;23049;54.304;8.826;2022-08-04T07:44:14;26.40;99.90
32769;DHT22;23049;54.304;8.826;2022-08-04T07:46:40;26.50;99.90
32769;DHT22;23049;54.304;8.826;2022-08-04T07:49:07;26.60;99.90
32769;DHT22;23049;54.304;8.826;2022-08-04T07:51:33;26.70;99.90
32769;DHT22;23049;54.304;8.826;2022-08-04T07:54:01;26.70;99.90
32769;DHT22;23049;54.304;8.826;2022-08-04T07:56:36;26.70;99.90
32769;DHT22;23049;54.304;8.826;2022-08-04T07:59:03;26.70;99.90
32769;DHT22;23049;54.304;8.826;2022-08-04T08:01:29;26.70;99.90
32769;DHT22;23049;54.304;8.826;2022-08-04T08:03:56;26.60;99.90
32769;DHT22;23049;54.304;8.826;2022-08-04T08:06:23;26.50;99.90
32769;DHT22;23049;54.304;8.826;2022-08-04T08:08:49;26.50;99.90
32769;DHT22;23049;54.304;8.826;2022-08-04T08:11:16;26.50;99.90
32769;DHT22;23049;54.304;8.826;2022-08-04T08:13:42;26.50;99.90
32769;DHT22;23049;54.304;8.826;2022-08-04T08:16:11;26.60;99.90
32769;DHT22;23049;54.304;8.826;2022-08-04T08:18:37;26.60;99.90
32769;DHT22;23049;54.304;8.826;2022-08-04T08:21:03;26.60;99.90
32769;DHT22;23049;54.304;8.826;2022-08-04T08:23:30;26.70;99.90
32769;DHT22;23049;54.304;8.826;2022-08-04T08:25:57;26.60;99.90
32769;DHT22;23049;54.304;8.826;2022-08-04T08:28:25;26.60;99.90
32769;DHT22;23049;54.304;8.826;2022-08-04T08:30:52;26.60;99.90
32769;DHT22;23049;54.304;8.826;2022-08-04T08:33:19;26.60;99.90
32769;DHT22;23049;54.304;8.826;2022-08-04T08:36:09;26.60;99.90
32769;DHT22;23049;54.304;8.826;2022-08-04T08:38:41;26.50;99.90
32769;DHT22;23049;54.304;8.826;2022-08-04T08:47:14;26.80;99.90
32769;DHT22;23049;54.304;8.826;2022-08-04T08:52:48;27.20;99.90
32769;DHT22;23049;54.304;8.826;2022-08-04T09:01:20;27.60;99.90
32769;DHT22;23049;54.304;8.826;2022-08-04T09:11:51;27.80;99.90
32769;DHT22;23049;54.304;8.826;2022-08-04T09:15:10;27.70;99.90
32769;DHT22;23049;54.304;8.826;2022-08-04T09:17:21;27.60;99.90
32769;DHT22;23049;54.304;8.826;2022-08-04T09:19:57;27.50;99.90
32769;DHT22;23049;54.304;8.826;2022-08-04T09:22:52;27.50;99.90
32769;DHT22;23049;54.304;8.826;2022-08-04T09:25:32;27.50;99.90
32769;DHT22;23049;54.304;8.826;2022-08-04T09:28:03;27.60;99.90
32769;DHT22;23049;54.304;8.826;2022-08-04T09:33:22;27.70;99.90
32769;DHT22;23049;54.304;8.826;2022-08-04T09:35:57;27.80;99.90
32769;DHT22;23049;54.304;8.826;2022-08-04T09:39:03;27.80;99.90
32769;DHT22;23049;54.304;8.826;2022-08-04T09:49:54;28.60;99.90
32769;DHT22;23049;54.304;8.826;2022-08-04T10:01:15;28.90;99.90
32769;DHT22;23049;54.304;8.826;2022-08-04T10:03:46;28.90;99.90
32769;DHT22;23049;54.304;8.826;2022-08-04T10:06:38;28.90;99.90
32769;DHT22;23049;54.304;8.826;2022-08-04T10:12:07;28.50;99.90
32769;DHT22;23049;54.304;8.826;2022-08-04T10:14:46;28.60;99.90
32769;DHT22;23049;54.304;8.826;2022-08-04T10:23:10;28.30;99.90
32769;DHT22;23049;54.304;8.826;2022-08-04T10:26:10;27.90;99.90
32769;DHT22;23049;54.304;8.826;2022-08-04T10:28:52;27.60;99.90
32769;DHT22;23049;54.304;8.826;2022-08-04T10:31:32;27.40;99.90
32769;DHT22;23049;54.304;8.826;2022-08-04T10:34:18;27.20;99.90
32769;DHT22;23049;54.304;8.826;2022-08-04T10:37:01;27.20;99.90
32769;DHT22;23049;54.304;8.826;2022-08-04T10:39:42;27.00;99.90
32769;DHT22;23049;54.304;8.826;2022-08-04T10:42:31;26.80;99.90
32769;DHT22;23049;54.304;8.826;2022-08-04T10:45:17;26.80;99.90
32769;DHT22;23049;54.304;8.826;2022-08-04T10:48:06;26.80;99.90
32769;DHT22;23049;54.304;8.826;2022-08-04T10:50:36;26.70;99.90
32769;DHT22;23049;54.304;8.826;2022-08-04T10:53:08;26.80;99.90
32769;DHT22;23049;54.304;8.826;2022-08-04T10:55:37;26.80;99.90
32769;DHT22;23049;54.304;8.826;2022-08-04T10:58:08;26.80;99.90
32769;DHT22;23049;54.304;8.826;2022-08-04T11:00:41;26.80;99.90
32769;DHT22;23049;54.304;8.826;2022-08-04T11:03:23;26.90;99.90
32769;DHT22;23049;54.304;8.826;2022-08-04T11:05:56;27.10;99.90
32769;DHT22;23049;54.304;8.826;2022-08-04T11:08:36;27.30;99.90
32769;DHT22;23049;54.304;8.826;2022-08-04T11:11:30;27.40;99.90
32769;DHT22;23049;54.304;8.826;2022-08-04T11:16:38;27.70;99.90
32769;DHT22;23049;54.304;8.826;2022-08-04T11:19:21;27.80;99.90
32769;DHT22;23049;54.304;8.826;2022-08-04T11:21:55;27.80;99.90
32769;DHT22;23049;54.304;8.826;2022-08-04T11:24:59;27.80;99.90
32769;DHT22;23049;54.304;8.826;2022-08-04T11:30:08;27.90;99.90
32769;DHT22;23049;54.304;8.826;2022-08-04T11:33:01;27.90;99.90
32769;DHT22;23049;54.304;8.826;2022-08-04T11:38:20;28.20;99.90
32769;DHT22;23049;54.304;8.826;2022-08-04T11:40:49;28.20;99.90
32769;DHT22;23049;54.304;8.826;2022-08-04T11:43:23;28.20;99.90
32769;DHT22;23049;54.304;8.826;2022-08-04T11:45:57;27.90;99.90
32769;DHT22;23049;54.304;8.826;2022-08-04T11:48:47;27.70;99.90
32769;DHT22;23049;54.304;8.826;2022-08-04T11:51:16;27.60;99.90
32769;DHT22;23049;54.304;8.826;2022-08-04T11:53:43;27.70;99.90
32769;DHT22;23049;54.304;8.826;2022-08-04T11:56:11;27.70;99.90
32769;DHT22;23049;54.304;8.826;2022-08-04T11:58:39;27.80;99.90
32769;DHT22;23049;54.304;8.826;2022-08-04T12:06:48;28.10;99.90
32769;DHT22;23049;54.304;8.826;2022-08-04T12:12:12;28.50;99.90
32769;DHT22;23049;54.304;8.826;2022-08-04T12:14:48;28.80;99.90
32769;DHT22;23049;54.304;8.826;2022-08-04T12:17:39;29.00;99.90
32769;DHT22;23049;54.304;8.826;2022-08-04T12:20:09;29.00;99.90
32769;DHT22;23049;54.304;8.826;2022-08-04T12:22:45;29.10;99.90
32769;DHT22;23049;54.304;8.826;2022-08-04T12:25:15;29.10;99.90
32769;DHT22;23049;54.304;8.826;2022-08-04T12:28:06;29.10;99.90
32769;DHT22;23049;54.304;8.826;2022-08-04T12:30:41;29.10;99.90
32769;DHT22;23049;54.304;8.826;2022-08-04T12:38:59;28.60;99.90
32769;DHT22;23049;54.304;8.826;2022-08-04T12:41:35;28.50;99.90
32769;DHT22;23049;54.304;8.826;2022-08-04T12:44:09;28.40;99.90
32769;DHT22;23049;54.304;8.826;2022-08-04T12:46:36;28.50;99.90
32769;DHT22;23049;54.304;8.826;2022-08-04T12:49:03;28.60;99.90
32769;DHT22;23049;54.304;8.826;2022-08-04T12:51:41;28.40;99.90
32769;DHT22;23049;54.304;8.826;2022-08-04T12:54:08;28.50;99.90
32769;DHT22;23049;54.304;8.826;2022-08-04T12:56:35;28.60;99.90
32769;DHT22;23049;54.304;8.826;2022-08-04T12:59:07;28.70;99.90
32769;DHT22;23049;54.304;8.826;2022-08-04T13:01:34;28.80;99.90
32769;DHT22;23049;54.304;8.826;2022-08-04T13:04:14;28.90;99.90
32769;DHT22;23049;54.304;8.826;2022-08-04T13:06:41;28.90;99.90
32769;DHT22;23049;54.304;8.826;2022-08-04T13:09:17;28.90;99.90
32769;DHT22;23049;54.304;8.826;2022-08-04T13:11:49;29.00;99.90
32769;DHT22;23049;54.304;8.826;2022-08-04T13:14:15;29.10;99.90
32769;DHT22;23049;54.304;8.826;2022-08-04T13:16:42;28.80;99.90
32769;DHT22;23049;54.304;8.826;2022-08-04T13:19:09;28.50;99.90
32769;DHT22;23049;54.304;8.826;2022-08-04T13:21:41;28.60;99.90
32769;DHT22;23049;54.304;8.826;2022-08-04T13:24:12;28.60;99.90
32769;DHT22;23049;54.304;8.826;2022-08-04T13:27:06;28.70;99.90
32769;DHT22;23049;54.304;8.826;2022-08-04T13:29:41;28.40;99.90
32769;DHT22;23049;54.304;8.826;2022-08-04T13:32:08;28.60;99.90
32769;DHT22;23049;54.304;8.826;2022-08-04T13:34:35;28.40;99.90
32769;DHT22;23049;54.304;8.826;2022-08-04T13:37:02;28.50;99.90
32769;DHT22;23049;54.304;8.826;2022-08-04T13:39:29;28.10;99.90
32769;DHT22;23049;54.304;8.826;2022-08-04T13:41:59;28.20;99.90
32769;DHT22;23049;54.304;8.826;2022-08-04T13:44:33;28.10;99.90
32769;DHT22;23049;54.304;8.826;2022-08-04T13:47:13;27.40;99.90
32769;DHT22;23049;54.304;8.826;2022-08-04T13:49:39;27.60;99.90
32769;DHT22;23049;54.304;8.826;2022-08-04T13:52:06;27.60;99.90
32769;DHT22;23049;54.304;8.826;2022-08-04T13:54:38;27.40;99.90
32769;DHT22;23049;54.304;8.826;2022-08-04T13:57:10;27.30;99.90
32769;DHT22;23049;54.304;8.826;2022-08-04T13:59:37;27.00;99.90
32769;DHT22;23049;54.304;8.826;2022-08-04T14:02:07;26.80;99.90
32769;DHT22;23049;54.304;8.826;2022-08-04T14:04:39;26.10;99.90
32769;DHT22;23049;54.304;8.826;2022-08-04T14:07:14;25.80;99.90
32769;DHT22;23049;54.304;8.826;2022-08-04T14:09:40;25.60;99.90
32769;DHT22;23049;54.304;8.826;2022-08-04T14:12:09;25.60;99.90
32769;DHT22;23049;54.304;8.826;2022-08-04T14:14:46;25.70;99.90
32769;DHT22;23049;54.304;8.826;2022-08-04T14:17:16;26.30;99.90
32769;DHT22;23049;54.304;8.826;2022-08-04T14:25:15;26.40;99.90
32769;DHT22;23049;54.304;8.826;2022-08-04T14:27:49;26.20;99.90
32769;DHT22;23049;54.304;8.826;2022-08-04T14:30:28;26.00;99.90
32769;DHT22;23049;54.304;8.826;2022-08-04T14:33:07;25.70;99.90
32769;DHT22;23049;54.304;8.826;2022-08-04T14:35:34;25.30;99.90
32769;DHT22;23049;54.304;8.826;2022-08-04T14:38:07;24.90;99.90
32769;DHT22;23049;54.304;8.826;2022-08-04T14:40:35;24.90;99.90
32769;DHT22;23049;54.304;8.826;2022-08-04T14:43:01;24.80;99.90
32769;DHT22;23049;54.304;8.826;2022-08-04T14:45:35;24.70;99.90
32769;DHT22;23049;54.304;8.826;2022-08-04T14:48:14;24.50;99.90
32769;DHT22;23049;54.304;8.826;2022-08-04T14:50:43;24.30;99.90
32769;DHT22;23049;54.304;8.826;2022-08-04T14:53:20;24.60;99.90
32769;DHT22;23049;54.304;8.826;2022-08-04T14:55:51;24.50;99.90
32769;DHT22;23049;54.304;8.826;2022-08-04T14:58:28;24.40;99.90
32769;DHT22;23049;54.304;8.826;2022-08-04T15:00:57;24.60;99.90
32769;DHT22;23049;54.304;8.826;2022-08-04T15:03:23;24.70;99.90
32769;DHT22;23049;54.304;8.826;2022-08-04T15:05:50;24.30;99.90
32769;DHT22;23049;54.304;8.826;2022-08-04T15:08:17;23.80;99.90
32769;DHT22;23049;54.304;8.826;2022-08-04T15:10:43;23.50;99.90
32769;DHT22;23049;54.304;8.826;2022-08-04T15:13:10;23.50;99.90
32769;DHT22;23049;54.304;8.826;2022-08-04T15:15:39;23.70;99.90
32769;DHT22;23049;54.304;8.826;2022-08-04T15:18:09;23.90;99.90
32769;DHT22;23049;54.304;8.826;2022-08-04T15:20:36;24.10;99.90
32769;DHT22;23049;54.304;8.826;2022-08-04T15:23:04;24.00;99.90
32769;DHT22;23049;54.304;8.826;2022-08-04T15:25:53;23.90;99.90
32769;DHT22;23049;54.304;8.826;2022-08-04T15:28:22;23.70;99.90
32769;DHT22;23049;54.304;8.826;2022-08-04T15:30:51;23.60;99.90
32769;DHT22;23049;54.304;8.826;2022-08-04T15:33:19;23.60;99.90
32769;DHT22;23049;54.304;8.826;2022-08-04T15:35:51;23.60;99.90
32769;DHT22;23049;54.304;8.826;2022-08-04T15:38:26;23.50;99.90
32769;DHT22;23049;54.304;8.826;2022-08-04T15:41:09;23.40;99.90
32769;DHT22;23049;54.304;8.826;2022-08-04T15:43:53;23.40;99.90
32769;DHT22;23049;54.304;8.826;2022-08-04T15:49:31;23.00;99.90
32769;DHT22;23049;54.304;8.826;2022-08-04T15:52:03;23.20;99.90
32769;DHT22;23049;54.304;8.826;2022-08-04T15:54:29;23.20;99.90
32769;DHT22;23049;54.304;8.826;2022-08-04T15:56:55;23.20;99.90
32769;DHT22;23049;54.304;8.826;2022-08-04T16:12:58;22.80;99.90
32769;DHT22;23049;54.304;8.826;2022-08-04T16:15:50;22.60;99.90
32769;DHT22;23049;54.304;8.826;2022-08-04T16:20:55;22.30;99.90
32769;DHT22;23049;54.304;8.826;2022-08-04T16:26:09;21.70;99.90
32769;DHT22;23049;54.304;8.826;2022-08-04T16:28:38;21.70;99.90
32769;DHT22;23049;54.304;8.826;2022-08-04T16:31:10;21.90;99.90
32769;DHT22;23049;54.304;8.826;2022-08-04T16:33:37;21.90;99.90
32769;DHT22;23049;54.304;8.826;2022-08-04T16:36:07;21.90;99.90
32769;DHT22;23049;54.304;8.826;2022-08-04T16:38:59;22.20;99.90
32769;DHT22;23049;54.304;8.826;2022-08-04T16:41:39;22.30;99.90
32769;DHT22;23049;54.304;8.826;2022-08-04T16:44:31;21.80;99.90
32769;DHT22;23049;54.304;8.826;2022-08-04T16:46:59;21.60;99.90
32769;DHT22;23049;54.304;8.826;2022-08-04T16:49:28;21.50;99.90
32769;DHT22;23049;54.304;8.826;2022-08-04T16:52:00;21.30;99.90
32769;DHT22;23049;54.304;8.826;2022-08-04T16:54:33;21.10;99.90
32769;DHT22;23049;54.304;8.826;2022-08-04T16:57:07;21.00;99.90
32769;DHT22;23049;54.304;8.826;2022-08-04T16:59:32;21.20;99.90
32769;DHT22;23049;54.304;8.826;2022-08-04T17:01:58;21.20;99.90
32769;DHT22;23049;54.304;8.826;2022-08-04T17:04:33;21.10;99.90
32769;DHT22;23049;54.304;8.826;2022-08-04T17:07:00;21.10;99.90
32769;DHT22;23049;54.304;8.826;2022-08-04T17:09:28;20.90;99.90
32769;DHT22;23049;54.304;8.826;2022-08-04T17:11:54;20.70;99.90
32769;DHT22;23049;54.304;8.826;2022-08-04T17:14:22;20.80;99.90
32769;DHT22;23049;54.304;8.826;2022-08-04T17:16:49;20.80;99.90
32769;DHT22;23049;54.304;8.826;2022-08-04T17:19:15;20.80;99.90
32769;DHT22;23049;54.304;8.826;2022-08-04T17:21:42;20.60;99.90
32769;DHT22;23049;54.304;8.826;2022-08-04T17:24:07;20.60;99.90
32769;DHT22;23049;54.304;8.826;2022-08-04T17:26:36;20.70;99.90
32769;DHT22;23049;54.304;8.826;2022-08-04T17:29:03;20.60;99.90
32769;DHT22;23049;54.304;8.826;2022-08-04T17:31:30;20.60;99.90
32769;DHT22;23049;54.304;8.826;2022-08-04T17:33:59;20.60;99.90
32769;DHT22;23049;54.304;8.826;2022-08-04T17:36:26;20.60;99.90
32769;DHT22;23049;54.304;8.826;2022-08-04T17:39:00;20.50;99.90
32769;DHT22;23049;54.304;8.826;2022-08-04T17:41:27;20.60;99.90
32769;DHT22;23049;54.304;8.826;2022-08-04T17:44:03;20.60;99.90
32769;DHT22;23049;54.304;8.826;2022-08-04T17:46:34;20.60;99.90
32769;DHT22;23049;54.304;8.826;2022-08-04T17:49:04;20.50;99.90
32769;DHT22;23049;54.304;8.826;2022-08-04T17:51:32;20.50;99.90
32769;DHT22;23049;54.304;8.826;2022-08-04T17:53:58;20.50;99.90
32769;DHT22;23049;54.304;8.826;2022-08-04T17:56:37;20.40;99.90
32769;DHT22;23049;54.304;8.826;2022-08-04T17:59:20;20.30;99.90
32769;DHT22;23049;54.304;8.826;2022-08-04T18:06:56;20.10;99.90
32769;DHT22;23049;54.304;8.826;2022-08-04T18:14:42;20.00;99.90
32769;DHT22;23049;54.304;8.826;2022-08-04T18:17:09;19.90;99.90
32769;DHT22;23049;54.304;8.826;2022-08-04T18:19:35;19.80;99.90
32769;DHT22;23049;54.304;8.826;2022-08-04T18:22:05;19.70;99.90
32769;DHT22;23049;54.304;8.826;2022-08-04T18:24:33;19.70;99.90
32769;DHT22;23049;54.304;8.826;2022-08-04T18:26:58;19.70;99.90
32769;DHT22;23049;54.304;8.826;2022-08-04T18:29:24;19.60;99.90
32769;DHT22;23049;54.304;8.826;2022-08-04T18:34:28;19.50;99.90
32769;DHT22;23049;54.304;8.826;2022-08-04T18:36:54;19.40;99.90
32769;DHT22;23049;54.304;8.826;2022-08-04T18:39:20;19.30;99.90
32769;DHT22;23049;54.304;8.826;2022-08-04T18:41:49;19.20;99.90
32769;DHT22;23049;54.304;8.826;2022-08-04T18:44:15;19.10;99.90
32769;DHT22;23049;54.304;8.826;2022-08-04T18:46:41;19.10;99.90
32769;DHT22;23049;54.304;8.826;2022-08-04T18:49:07;19.00;99.90
32769;DHT22;23049;54.304;8.826;2022-08-04T18:51:35;19.00;99.90
32769;DHT22;23049;54.304;8.826;2022-08-04T18:54:01;18.90;99.90
32769;DHT22;23049;54.304;8.826;2022-08-04T18:56:29;18.90;99.90
32769;DHT22;23049;54.304;8.826;2022-08-04T18:58:55;18.90;99.90
32769;DHT22;23049;54.304;8.826;2022-08-04T19:01:20;18.80;99.90
32769;DHT22;23049;54.304;8.826;2022-08-04T19:03:46;18.80;99.90
32769;DHT22;23049;54.304;8.826;2022-08-04T19:06:13;18.70;99.90
32769;DHT22;23049;54.304;8.826;2022-08-04T19:08:38;18.60;99.90
32769;DHT22;23049;54.304;8.826;2022-08-04T19:11:05;18.60;99.90
32769;DHT22;23049;54.304;8.826;2022-08-04T19:13:31;18.50;99.90
32769;DHT22;23049;54.304;8.826;2022-08-04T19:15:59;18.40;99.90
32769;DHT22;23049;54.304;8.826;2022-08-04T19:18:25;18.40;99.90
32769;DHT22;23049;54.304;8.826;2022-08-04T19:20:51;18.30;99.90
32769;DHT22;23049;54.304;8.826;2022-08-04T19:23:17;18.30;99.90
32769;DHT22;23049;54.304;8.826;2022-08-04T19:25:43;18.30;99.90
32769;DHT22;23049;54.304;8.826;2022-08-04T19:28:09;18.20;99.90
32769;DHT22;23049;54.304;8.826;2022-08-04T19:30:35;18.10;99.90
32769;DHT22;23049;54.304;8.826;2022-08-04T19:33:01;18.10;99.90
32769;DHT22;23049;54.304;8.826;2022-08-04T19:35:26;18.10;99.90
32769;DHT22;23049;54.304;8.826;2022-08-04T19:37:52;18.00;99.90
32769;DHT22;23049;54.304;8.826;2022-08-04T19:40:17;18.00;99.90
32769;DHT22;23049;54.304;8.826;2022-08-04T19:42:43;17.90;99.90
32769;DHT22;23049;54.304;8.826;2022-08-04T19:45:09;17.80;99.90
32769;DHT22;23049;54.304;8.826;2022-08-04T19:47:36;17.80;99.90
32769;DHT22;23049;54.304;8.826;2022-08-04T19:50:03;17.70;99.90
32769;DHT22;23049;54.304;8.826;2022-08-04T19:52:31;17.70;99.90
32769;DHT22;23049;54.304;8.826;2022-08-04T19:54:56;17.60;99.90
32769;DHT22;23049;54.304;8.826;2022-08-04T19:57:22;17.50;99.90
32769;DHT22;23049;54.304;8.826;2022-08-04T19:59:48;17.50;99.90
32769;DHT22;23049;54.304;8.826;2022-08-04T20:02:14;17.40;99.90
32769;DHT22;23049;54.304;8.826;2022-08-04T20:04:39;17.30;99.90
32769;DHT22;23049;54.304;8.826;2022-08-04T20:07:05;17.30;99.90
32769;DHT22;23049;54.304;8.826;2022-08-04T20:09:31;17.30;99.90
32769;DHT22;23049;54.304;8.826;2022-08-04T20:11:57;17.20;99.90
32769;DHT22;23049;54.304;8.826;2022-08-04T20:14:24;17.20;99.90
32769;DHT22;23049;54.304;8.826;2022-08-04T20:16:50;17.20;99.90
32769;DHT22;23049;54.304;8.826;2022-08-04T20:19:15;17.20;99.90
32769;DHT22;23049;54.304;8.826;2022-08-04T20:21:41;17.20;99.90
32769;DHT22;23049;54.304;8.826;2022-08-04T20:24:07;17.20;99.90
32769;DHT22;23049;54.304;8.826;2022-08-04T20:26:33;17.30;99.90